Tropical Cyclones
[Index]
Main Index Home Page Stock Weather Photos Extreme Storms Discussion Storm News and Storm Chasing Reports Tropical Cyclones / Hurricanes / Typhoons Weather Data and Links Wild Fires / Bushfires Weather Observation Techniques Weather Picture Catalogue Tornado Pictures and Reports Stock Video Footage and DVDs for sale
Season 2011-2012 Tropical Cyclone IGGY Track Map
Season 2011-2012 Summaries (Operational Data): [AU] [SIO] [SPAC] [SH]
<<- Previous TC | 2011-2012 Season | Next TC ->>

click for intensity scale information  Lat/long Grid: Show Hide

 Date Labels: Show Hide

Operational Tropical Cyclone Data : JTWC Advisories

Name: IGGY
Number: 1209

21 Jan 2012 06:00 UTC to 03 Feb 2012 05:00 UTC

    date/time    lat    long     hPa   cat  kts
2012-01-21 06   12.7   119.7    1010         15          
2012-01-21 12   12.7   119.1    1010         15          
2012-01-21 18   12.6   118.4    1010         15          
2012-01-22 00   13.0   119.1    1010         15          
2012-01-22 06   12.8   118.6    1010         15          
2012-01-22 18   13.1   117.5    1010         15          
2012-01-23 00   13.5   117.0    1010         15          
2012-01-23 06   14.3   116.3    1007         20          
2012-01-23 12   15.0   115.8    1010         15          
2012-01-23 18   15.8   114.9    1004         20          
2012-01-24 00   16.3   113.7    1003         20          
2012-01-24 06   16.8   112.5    1004         25          
2012-01-24 12   16.5   111.0    1000         30          
2012-01-24 18   16.0   109.5     996         30          
2012-01-25 00   15.9   109.2     996         30          
2012-01-25 06   15.8   108.8    1000         30          
2012-01-25 12   15.8   108.5     996    1    35          
2012-01-25 18   15.9   108.0     993    1    40          
2012-01-26 00   16.2   108.3     989    1    45          
2012-01-26 06   16.6   108.7     989    1    45          
2012-01-26 12   17.1   109.0     989    1    45          
2012-01-26 18   17.6   109.5     989    1    45          
2012-01-27 00   18.1   110.0     985    2    50          
2012-01-27 12   18.9   110.5     982    2    55          
2012-01-27 18   19.3   110.7     982    2    55          
2012-01-28 00   19.7   110.7     982    2    55          
2012-01-28 06   19.8   110.9     982    2    55          
2012-01-28 12   20.2   110.8     978    2    60          
2012-01-28 18   20.0   111.1     982    2    55          
2012-01-29 00   20.1   111.1     985    2    50          
2012-01-29 06   20.2   110.9     985    2    50          
2012-01-29 12   20.2   110.7     985    2    50          
2012-01-29 18   19.8   110.8     985    2    50          
2012-01-30 00   19.9   110.7     989    1    45          
2012-01-30 06   20.2   110.7     989    1    45          
2012-01-30 12   20.7   110.4     982    2    55          
2012-01-30 18   21.3   109.8     982    2    55          
2012-01-31 00   21.9   109.4     985    2    50          
2012-01-31 06   22.8   108.8     985    2    50          
2012-01-31 12   23.9   108.3     982    2    55          
2012-01-31 18   25.0   107.8     974    3    65          
2012-02-01 00   26.1   107.8     974    3    65          
2012-02-01 06   27.4   108.0     978    2    60          
2012-02-01 12   28.3   108.6     978    2    60          
2012-02-01 18   29.2   109.6     978    2    60          
2012-02-02 00   29.7   110.7     982    2    55          
2012-02-02 06   29.8   111.9     993    1    40          
2012-02-02 12   29.9   113.5    1000         30          
2012-02-02 18   29.8   114.4    1004         25          
2012-02-02 23   30.0   115.5                             
2012-02-03 00   29.9   115.4    1004         25          
2012-02-03 02   29.7   115.9                             
2012-02-03 05   29.5   116.5                             
Winds are 10-min average.

Tropical cyclone tracks developed by Michael Bath using operational warnings and advisories and Google Maps.


[Australian Severe Weather index] [Copyright Notice] [Email Contacts] [Search This Site] [Privacy Policy]
Document: tropical_cyclone_iggy.htm Updated: 2 May 2017